createdAt,value
2017-12-31T00:01:34.358Z,3.87
2017-12-31T00:04:01.859Z,3.50
2017-12-31T00:06:29.366Z,3.03
2017-12-31T00:08:56.809Z,1.47
2017-12-31T00:11:24.291Z,2.50
2017-12-31T00:13:51.754Z,2.57
2017-12-31T00:16:19.220Z,0.90
2017-12-31T00:18:46.681Z,2.07
2017-12-31T00:21:14.154Z,2.03
2017-12-31T00:23:42.074Z,4.00
2017-12-31T00:26:09.511Z,1.53
2017-12-31T00:28:37.766Z,1.20
2017-12-31T00:31:05.241Z,0.70
2017-12-31T00:33:32.701Z,1.40
2017-12-31T00:36:00.170Z,0.73
2017-12-31T00:38:27.633Z,0.93
2017-12-31T00:40:55.822Z,3.70
2017-12-31T00:43:24.064Z,1.77
2017-12-31T00:45:51.538Z,1.27
2017-12-31T00:48:19.014Z,0.90
2017-12-31T00:50:47.250Z,1.70
2017-12-31T00:53:14.664Z,2.37
2017-12-31T00:55:43.809Z,2.33
2017-12-31T00:58:11.626Z,3.33
2017-12-31T01:00:39.089Z,2.33
2017-12-31T01:03:07.255Z,0.80
2017-12-31T01:05:35.467Z,7.67
2017-12-31T01:08:03.666Z,2.77
2017-12-31T01:10:31.877Z,4.23
2017-12-31T01:12:59.305Z,2.00
2017-12-31T01:15:26.739Z,4.87
2017-12-31T01:17:54.181Z,3.83
2017-12-31T01:20:21.627Z,2.00
2017-12-31T01:22:49.059Z,7.20
2017-12-31T01:25:17.263Z,14.20
2017-12-31T01:27:44.698Z,1.20
2017-12-31T01:30:12.164Z,8.10
2017-12-31T01:32:39.601Z,1.90
2017-12-31T01:35:07.034Z,1.83
2017-12-31T01:37:35.983Z,4.13
2017-12-31T01:40:04.183Z,9.93
2017-12-31T01:42:32.385Z,6.50
2017-12-31T01:45:00.637Z,5.03
2017-12-31T01:47:28.070Z,3.43
2017-12-31T01:49:56.284Z,6.67
2017-12-31T01:52:23.713Z,2.33
2017-12-31T01:54:51.148Z,4.43
2017-12-31T01:57:18.598Z,2.83
2017-12-31T01:59:46.032Z,6.80
2017-12-31T02:02:14.263Z,5.27
2017-12-31T02:04:41.771Z,5.40
2017-12-31T02:07:09.960Z,4.23
2017-12-31T02:09:38.164Z,5.97
2017-12-31T02:12:06.374Z,4.97
2017-12-31T02:14:33.803Z,3.43
2017-12-31T02:17:01.249Z,6.00
2017-12-31T02:19:28.678Z,3.70
2017-12-31T02:21:56.119Z,10.73
2017-12-31T02:24:23.555Z,6.17
2017-12-31T02:26:51.764Z,4.33
2017-12-31T02:29:19.963Z,6.43
2017-12-31T02:31:48.167Z,11.10
2017-12-31T02:34:15.602Z,5.47
2017-12-31T02:36:43.046Z,13.80
2017-12-31T02:39:10.483Z,7.73
2017-12-31T02:41:38.696Z,7.13
2017-12-31T02:44:06.907Z,2.20
2017-12-31T02:46:34.342Z,11.97
2017-12-31T02:49:01.766Z,7.90
2017-12-31T02:51:29.204Z,3.90
2017-12-31T02:53:56.631Z,3.30
2017-12-31T02:56:24.088Z,11.20
2017-12-31T02:58:51.512Z,2.77
2017-12-31T03:01:18.957Z,1.67
2017-12-31T03:03:47.146Z,2.10
2017-12-31T03:06:15.363Z,7.60
2017-12-31T03:08:43.331Z,11.50
2017-12-31T03:11:11.547Z,2.97
2017-12-31T03:13:39.737Z,7.00
2017-12-31T03:16:07.948Z,5.20
2017-12-31T03:18:36.149Z,12.30
2017-12-31T03:21:03.585Z,2.43
2017-12-31T03:23:31.026Z,4.30
2017-12-31T03:25:58.468Z,4.30
2017-12-31T03:28:25.894Z,9.73
2017-12-31T03:30:53.345Z,10.10
2017-12-31T03:33:20.773Z,7.70
2017-12-31T03:35:48.230Z,8.63
2017-12-31T03:38:15.661Z,5.00
2017-12-31T03:40:43.100Z,7.70
2017-12-31T03:43:10.542Z,6.50
2017-12-31T03:45:38.743Z,6.33
2017-12-31T03:48:06.944Z,6.10
2017-12-31T03:50:34.382Z,4.43
2017-12-31T03:53:01.860Z,2.40
2017-12-31T03:55:29.283Z,5.80
2017-12-31T03:57:57.488Z,5.57
2017-12-31T04:00:25.687Z,9.07
2017-12-31T04:02:53.576Z,3.80
2017-12-31T04:05:21.772Z,7.80
2017-12-31T04:07:49.985Z,4.67
2017-12-31T04:10:17.412Z,8.27
2017-12-31T04:12:44.846Z,3.23
2017-12-31T04:15:12.292Z,6.47
2017-12-31T04:17:39.733Z,3.57
2017-12-31T04:20:07.166Z,5.03
2017-12-31T04:22:35.370Z,2.20
2017-12-31T04:25:02.815Z,7.53
2017-12-31T04:27:30.260Z,5.83
2017-12-31T04:29:57.684Z,4.10
2017-12-31T04:32:25.128Z,1.97
2017-12-31T04:34:52.564Z,4.23
2017-12-31T04:37:20.777Z,10.63
2017-12-31T04:39:48.976Z,4.70
2017-12-31T04:42:16.407Z,2.50
2017-12-31T04:44:44.379Z,15.47
2017-12-31T04:47:11.822Z,4.43
2017-12-31T04:49:39.269Z,4.97
2017-12-31T04:52:06.717Z,4.07
2017-12-31T04:54:34.160Z,11.00
2017-12-31T04:57:02.370Z,2.63
2017-12-31T04:59:29.803Z,3.90
2017-12-31T05:01:57.247Z,3.07
2017-12-31T05:04:24.683Z,10.90
2017-12-31T05:06:52.132Z,13.53
2017-12-31T05:09:19.560Z,3.50
2017-12-31T05:11:47.774Z,4.27
2017-12-31T05:14:15.215Z,7.17
2017-12-31T05:16:42.651Z,2.13
2017-12-31T05:19:10.085Z,5.27
2017-12-31T05:21:37.528Z,4.73
2017-12-31T05:24:04.962Z,3.93
2017-12-31T05:26:33.187Z,3.40
2017-12-31T05:29:00.614Z,5.47
2017-12-31T05:31:28.047Z,3.87
2017-12-31T05:33:55.496Z,6.27
2017-12-31T05:36:23.690Z,4.07
2017-12-31T05:38:51.909Z,3.07
2017-12-31T05:41:20.111Z,8.93
2017-12-31T05:43:47.551Z,1.77
2017-12-31T05:46:14.974Z,1.30
2017-12-31T05:48:42.425Z,6.33
2017-12-31T05:51:10.623Z,13.10
2017-12-31T05:53:38.845Z,2.87
2017-12-31T05:56:06.276Z,3.73
2017-12-31T05:58:33.719Z,2.10
2017-12-31T06:01:01.147Z,2.63
2017-12-31T06:03:28.606Z,3.90
2017-12-31T06:05:56.048Z,4.43
2017-12-31T06:08:23.472Z,2.70
2017-12-31T06:10:50.915Z,8.13
2017-12-31T06:13:18.351Z,12.17
2017-12-31T06:15:45.778Z,6.63
2017-12-31T06:18:13.219Z,2.93
2017-12-31T06:20:41.429Z,6.50
2017-12-31T06:23:09.632Z,4.83
2017-12-31T06:25:37.076Z,1.90
2017-12-31T06:28:04.518Z,4.33
2017-12-31T06:30:31.963Z,4.87
2017-12-31T06:33:00.163Z,5.93
2017-12-31T06:35:28.368Z,5.67
2017-12-31T06:37:56.563Z,2.03
2017-12-31T06:40:24.768Z,5.10
2017-12-31T06:42:52.979Z,11.70
2017-12-31T06:45:20.426Z,10.87
2017-12-31T06:47:47.842Z,2.77
2017-12-31T06:50:15.288Z,11.33
2017-12-31T06:52:42.719Z,4.43
2017-12-31T06:55:10.163Z,4.73
2017-12-31T06:57:38.363Z,2.57
2017-12-31T07:00:06.581Z,5.10
2017-12-31T07:02:34.012Z,2.80
2017-12-31T07:05:01.454Z,3.57
2017-12-31T07:07:28.888Z,4.50
2017-12-31T07:09:56.318Z,1.57
2017-12-31T07:12:23.769Z,3.70
2017-12-31T07:14:51.965Z,10.70
2017-12-31T07:17:20.184Z,4.47
2017-12-31T07:19:47.606Z,6.53
2017-12-31T07:22:15.879Z,6.53
2017-12-31T07:24:43.316Z,3.80
2017-12-31T07:27:11.524Z,7.20
2017-12-31T07:29:38.956Z,1.40
2017-12-31T07:32:06.399Z,3.30
2017-12-31T07:34:33.831Z,4.53
2017-12-31T07:37:01.272Z,10.80
2017-12-31T07:39:28.708Z,2.30
2017-12-31T07:41:56.911Z,8.93
2017-12-31T07:44:25.111Z,3.17
2017-12-31T07:46:53.311Z,4.30
2017-12-31T07:49:21.508Z,3.97
2017-12-31T07:51:49.736Z,3.77
2017-12-31T07:54:17.161Z,4.30
2017-12-31T07:56:44.604Z,8.23
2017-12-31T07:59:12.037Z,3.07
2017-12-31T08:01:40.254Z,2.00
2017-12-31T08:04:07.683Z,3.20
2017-12-31T08:06:35.144Z,3.73
2017-12-31T08:09:02.576Z,4.83
2017-12-31T08:11:30.024Z,1.77
2017-12-31T08:13:57.458Z,4.40
2017-12-31T08:16:24.909Z,2.97
2017-12-31T08:18:52.342Z,2.20
2017-12-31T08:21:19.775Z,2.20
2017-12-31T08:23:47.216Z,3.80
2017-12-31T08:26:15.007Z,7.23
2017-12-31T08:28:42.447Z,3.53
2017-12-31T08:31:09.888Z,3.57
2017-12-31T08:33:37.341Z,6.00
2017-12-31T08:36:04.771Z,6.33
2017-12-31T08:38:32.986Z,4.83
2017-12-31T08:41:01.195Z,2.57
2017-12-31T08:43:28.638Z,4.33
2017-12-31T08:45:56.072Z,3.70
2017-12-31T08:48:23.583Z,4.20
2017-12-31T08:50:51.024Z,2.27
2017-12-31T08:53:18.480Z,3.73
2017-12-31T08:55:46.690Z,2.17
2017-12-31T08:58:14.377Z,1.73
2017-12-31T09:00:42.577Z,6.43
2017-12-31T09:03:10.029Z,5.30
2017-12-31T09:05:37.466Z,2.30
2017-12-31T09:08:04.903Z,4.67
2017-12-31T09:10:33.116Z,3.27
2017-12-31T09:13:00.561Z,1.77
2017-12-31T09:15:28.010Z,1.97
2017-12-31T09:17:55.446Z,2.87
2017-12-31T09:20:23.668Z,0.90
2017-12-31T09:22:51.100Z,2.40
2017-12-31T09:25:18.548Z,4.03
2017-12-31T09:27:46.508Z,1.83
2017-12-31T09:30:13.948Z,1.83
2017-12-31T09:32:41.377Z,2.57
2017-12-31T09:35:08.854Z,3.27
2017-12-31T09:37:36.291Z,3.70
2017-12-31T09:40:03.731Z,1.00
2017-12-31T09:42:31.166Z,3.10
2017-12-31T09:44:59.385Z,5.50
2017-12-31T09:47:27.587Z,5.67
2017-12-31T09:49:55.023Z,3.53
2017-12-31T09:52:22.458Z,7.07
2017-12-31T09:54:49.910Z,3.17
2017-12-31T09:57:18.107Z,3.40
2017-12-31T09:59:46.759Z,2.00
2017-12-31T10:02:14.186Z,0.90
2017-12-31T10:04:42.591Z,3.00
2017-12-31T10:07:10.034Z,10.70
2017-12-31T10:09:37.480Z,5.10
2017-12-31T10:12:04.929Z,2.53
2017-12-31T10:14:32.358Z,5.57
2017-12-31T10:16:59.856Z,4.20
2017-12-31T10:19:28.015Z,1.03
2017-12-31T10:21:55.464Z,3.03
2017-12-31T10:24:22.906Z,1.50
2017-12-31T10:26:50.351Z,3.93
2017-12-31T10:29:18.556Z,4.10
2017-12-31T10:31:46.711Z,2.73
2017-12-31T10:34:14.155Z,3.90
2017-12-31T10:36:41.606Z,4.67
2017-12-31T10:39:09.801Z,5.17
2017-12-31T10:41:38.009Z,2.17
2017-12-31T10:44:06.217Z,6.80
2017-12-31T10:46:33.667Z,6.10
2017-12-31T10:49:01.100Z,2.63
2017-12-31T10:51:28.554Z,1.93
2017-12-31T10:53:55.989Z,4.87
2017-12-31T10:56:23.434Z,3.97
2017-12-31T10:58:50.886Z,2.00
2017-12-31T11:01:19.096Z,3.43
2017-12-31T11:03:47.250Z,3.37
2017-12-31T11:06:15.032Z,2.97
2017-12-31T11:08:42.453Z,5.83
2017-12-31T11:11:09.895Z,1.87
2017-12-31T11:13:37.338Z,1.00
2017-12-31T11:16:04.781Z,3.63
2017-12-31T11:18:33.032Z,2.57
2017-12-31T11:21:01.197Z,3.23
2017-12-31T11:23:28.635Z,5.73
2017-12-31T11:25:56.079Z,3.07
2017-12-31T11:28:23.519Z,2.30
2017-12-31T11:30:51.736Z,2.00
2017-12-31T11:33:19.172Z,3.50
2017-12-31T11:35:47.637Z,4.67
2017-12-31T11:38:15.461Z,7.93
2017-12-31T11:40:42.885Z,4.93
2017-12-31T11:43:10.330Z,2.67
2017-12-31T11:45:37.767Z,3.90
2017-12-31T11:48:05.212Z,6.33
2017-12-31T11:50:33.422Z,6.73
2017-12-31T11:53:01.622Z,1.63
2017-12-31T11:55:29.067Z,1.33
2017-12-31T11:57:56.504Z,2.07
2017-12-31T12:00:23.943Z,3.13
2017-12-31T12:02:51.397Z,3.90
2017-12-31T12:05:18.839Z,1.73
2017-12-31T12:07:46.740Z,2.80
2017-12-31T12:10:14.217Z,2.97
2017-12-31T12:12:41.652Z,2.90
2017-12-31T12:15:09.097Z,1.33
2017-12-31T12:17:36.538Z,7.13
2017-12-31T12:20:04.785Z,1.27
2017-12-31T12:22:32.993Z,1.67
2017-12-31T12:25:00.432Z,2.30
2017-12-31T12:27:27.884Z,3.83
2017-12-31T12:29:56.080Z,2.60
2017-12-31T12:32:24.298Z,1.63
2017-12-31T12:34:52.550Z,6.93
2017-12-31T12:37:20.030Z,1.20
2017-12-31T12:39:48.194Z,10.57
2017-12-31T12:42:15.866Z,2.30
2017-12-31T12:44:44.098Z,2.70
2017-12-31T12:47:11.574Z,1.80
2017-12-31T12:49:39.029Z,4.90
2017-12-31T12:52:06.450Z,2.00
2017-12-31T12:54:33.930Z,1.00
2017-12-31T12:57:01.370Z,1.47
2017-12-31T12:59:28.810Z,1.40
2017-12-31T13:01:56.256Z,1.10
2017-12-31T13:04:23.709Z,1.40
2017-12-31T13:06:51.941Z,1.33
2017-12-31T13:09:19.371Z,2.07
2017-12-31T13:11:48.509Z,3.80
2017-12-31T13:14:15.986Z,4.87
2017-12-31T13:16:44.229Z,5.63
2017-12-31T13:19:11.655Z,2.20
2017-12-31T13:21:39.934Z,3.40
2017-12-31T13:24:07.366Z,2.10
2017-12-31T13:26:34.822Z,1.40
2017-12-31T13:29:02.267Z,1.10
2017-12-31T13:31:29.711Z,4.63
2017-12-31T13:33:57.154Z,3.73
2017-12-31T13:36:25.371Z,1.03
2017-12-31T13:38:52.807Z,2.60
2017-12-31T13:41:20.334Z,1.97
2017-12-31T13:43:48.767Z,4.20
2017-12-31T13:46:16.752Z,1.10
2017-12-31T13:48:44.205Z,6.33
2017-12-31T13:51:12.446Z,2.30
2017-12-31T13:53:39.927Z,3.57
2017-12-31T13:56:07.359Z,2.83
2017-12-31T13:58:35.570Z,4.03
2017-12-31T14:01:03.012Z,6.60
2017-12-31T14:03:30.501Z,1.43
2017-12-31T14:05:57.936Z,1.80
2017-12-31T14:08:25.384Z,2.00
2017-12-31T14:10:53.592Z,7.80
2017-12-31T14:13:21.054Z,4.73
2017-12-31T14:15:49.257Z,1.00
2017-12-31T14:18:17.867Z,6.73
2017-12-31T14:20:45.308Z,1.20
2017-12-31T14:23:12.811Z,2.90
2017-12-31T14:25:40.227Z,1.93
2017-12-31T14:28:07.676Z,1.80
2017-12-31T14:30:35.878Z,4.23
2017-12-31T14:33:04.084Z,4.30
2017-12-31T14:35:32.285Z,1.93
2017-12-31T14:38:00.491Z,1.00
2017-12-31T14:40:27.940Z,1.50
2017-12-31T14:42:55.388Z,1.57
2017-12-31T14:45:22.825Z,0.90
2017-12-31T14:47:51.042Z,4.87
2017-12-31T14:50:18.521Z,4.20
2017-12-31T14:52:46.004Z,2.10
2017-12-31T14:55:13.435Z,1.53
2017-12-31T14:57:40.879Z,3.13
2017-12-31T15:00:08.321Z,16.93
2017-12-31T15:02:36.526Z,9.37
2017-12-31T15:05:04.012Z,5.17
2017-12-31T15:07:32.245Z,2.20
2017-12-31T15:09:59.658Z,2.10
2017-12-31T15:12:27.723Z,2.13
2017-12-31T15:14:55.161Z,3.70
2017-12-31T15:17:22.616Z,6.40
2017-12-31T15:19:50.057Z,10.63
2017-12-31T15:22:18.197Z,8.33
2017-12-31T15:24:47.050Z,8.23
2017-12-31T15:27:14.502Z,6.40
2017-12-31T15:29:42.710Z,23.77
2017-12-31T15:32:10.933Z,16.13
2017-12-31T15:34:38.417Z,22.67
2017-12-31T15:37:05.869Z,21.23
2017-12-31T15:39:34.127Z,8.17
2017-12-31T15:42:01.574Z,15.13
2017-12-31T15:44:29.067Z,13.87
2017-12-31T15:46:56.525Z,14.97
2017-12-31T15:49:24.742Z,15.57
2017-12-31T15:51:52.222Z,14.70
2017-12-31T15:54:19.659Z,19.23
2017-12-31T15:56:47.144Z,17.13
2017-12-31T15:59:14.618Z,18.03
2017-12-31T16:01:42.050Z,13.27
2017-12-31T16:04:09.484Z,7.17
2017-12-31T16:06:36.967Z,5.93
2017-12-31T16:09:04.442Z,5.60
2017-12-31T16:11:31.867Z,8.80
2017-12-31T16:13:59.319Z,8.07
2017-12-31T16:16:27.526Z,17.97
2017-12-31T16:18:55.781Z,16.47
2017-12-31T16:21:23.259Z,32.00
2017-12-31T16:23:50.699Z,32.87
2017-12-31T16:26:18.292Z,22.53
2017-12-31T16:28:45.785Z,27.57
2017-12-31T16:31:13.264Z,80.57
2017-12-31T16:33:40.742Z,55.23
2017-12-31T16:36:08.167Z,26.10
2017-12-31T16:38:35.612Z,24.13
2017-12-31T16:41:03.043Z,9.63
2017-12-31T16:43:31.306Z,30.40
2017-12-31T16:45:58.740Z,15.80
2017-12-31T16:48:26.990Z,5.33
2017-12-31T16:50:54.410Z,4.57
2017-12-31T16:53:22.672Z,6.40
2017-12-31T16:55:50.097Z,8.07
2017-12-31T16:58:19.174Z,68.13
2017-12-31T17:00:46.849Z,30.67
2017-12-31T17:03:14.295Z,45.73
2017-12-31T17:05:41.874Z,60.30
2017-12-31T17:08:10.117Z,22.00
2017-12-31T17:10:37.593Z,43.73
2017-12-31T17:13:05.070Z,55.90
2017-12-31T17:15:32.495Z,73.70
2017-12-31T17:18:00.719Z,36.10
2017-12-31T17:20:28.906Z,13.50
2017-12-31T17:22:56.353Z,20.20
2017-12-31T17:25:23.791Z,6.53
2017-12-31T17:27:51.243Z,6.83
2017-12-31T17:30:19.490Z,3.50
2017-12-31T17:32:46.975Z,2.70
2017-12-31T17:35:14.449Z,4.53
2017-12-31T17:37:41.909Z,1.43
2017-12-31T17:40:09.382Z,1.40
2017-12-31T17:42:37.575Z,12.97
2017-12-31T17:45:05.028Z,13.53
2017-12-31T17:47:32.471Z,2.10
2017-12-31T17:49:59.953Z,1.77
2017-12-31T17:52:27.382Z,3.33
2017-12-31T17:54:55.587Z,1.50
2017-12-31T17:57:23.839Z,5.83
2017-12-31T17:59:51.278Z,7.70
2017-12-31T18:02:19.551Z,6.57
2017-12-31T18:04:47.806Z,2.20
2017-12-31T18:07:15.274Z,5.30
2017-12-31T18:09:42.737Z,3.00
2017-12-31T18:12:10.147Z,3.20
2017-12-31T18:14:37.601Z,2.53
2017-12-31T18:17:05.031Z,2.47
2017-12-31T18:19:32.483Z,3.07
2017-12-31T18:21:59.927Z,5.13
2017-12-31T18:24:28.136Z,3.47
2017-12-31T18:26:55.574Z,3.50
2017-12-31T18:29:23.062Z,10.87
2017-12-31T18:31:50.500Z,17.17
2017-12-31T18:34:18.753Z,13.47
2017-12-31T18:36:46.231Z,7.50
2017-12-31T18:39:13.661Z,4.37
2017-12-31T18:41:41.090Z,3.10
2017-12-31T18:44:08.541Z,4.00
2017-12-31T18:46:35.977Z,4.10
2017-12-31T18:49:04.190Z,3.90
2017-12-31T18:51:31.624Z,7.70
2017-12-31T18:53:59.067Z,19.80
2017-12-31T18:56:26.519Z,14.00
2017-12-31T18:58:54.796Z,22.93
2017-12-31T19:01:22.222Z,29.17
2017-12-31T19:03:49.667Z,47.00
2017-12-31T19:06:18.616Z,36.87
2017-12-31T19:08:46.063Z,45.17
2017-12-31T19:11:14.314Z,49.77
2017-12-31T19:13:41.756Z,29.60
2017-12-31T19:16:09.196Z,27.20
2017-12-31T19:18:36.643Z,34.50
2017-12-31T19:21:04.092Z,22.13
2017-12-31T19:23:31.585Z,25.67
2017-12-31T19:25:59.011Z,21.67
2017-12-31T19:28:26.461Z,34.60
2017-12-31T19:30:53.906Z,30.37
2017-12-31T19:33:22.118Z,37.93
2017-12-31T19:35:50.093Z,39.90
2017-12-31T19:38:18.926Z,34.77
2017-12-31T19:40:47.116Z,17.53
2017-12-31T19:43:14.626Z,27.97
2017-12-31T19:45:42.077Z,35.30
2017-12-31T19:48:09.515Z,24.70
2017-12-31T19:50:36.967Z,21.90
2017-12-31T19:53:04.453Z,24.60
2017-12-31T19:55:31.942Z,23.80
2017-12-31T19:57:59.423Z,23.67
2017-12-31T20:00:26.865Z,21.10
2017-12-31T20:02:55.072Z,24.13
2017-12-31T20:05:22.522Z,16.40
2017-12-31T20:07:49.962Z,19.57
2017-12-31T20:10:17.796Z,14.33
2017-12-31T20:12:45.218Z,17.20
2017-12-31T20:15:12.707Z,9.27
2017-12-31T20:17:40.174Z,7.30
2017-12-31T20:20:07.603Z,7.00
2017-12-31T20:22:35.082Z,12.80
2017-12-31T20:25:02.553Z,7.00
2017-12-31T20:27:29.974Z,14.60
2017-12-31T20:29:58.230Z,14.23
2017-12-31T20:32:26.453Z,9.40
2017-12-31T20:34:53.939Z,17.87
2017-12-31T20:37:21.366Z,13.07
2017-12-31T20:39:49.763Z,27.73
2017-12-31T20:42:17.239Z,22.27
2017-12-31T20:44:44.685Z,23.77
2017-12-31T20:47:12.117Z,42.20
2017-12-31T20:49:39.619Z,41.03
2017-12-31T20:52:07.095Z,29.93
2017-12-31T20:54:34.565Z,27.33
2017-12-31T20:57:02.047Z,24.00
2017-12-31T20:59:29.525Z,18.43
2017-12-31T21:01:57.007Z,33.23
2017-12-31T21:04:24.485Z,21.53
2017-12-31T21:06:51.964Z,10.07
2017-12-31T21:09:20.148Z,13.70
2017-12-31T21:11:47.979Z,10.10
2017-12-31T21:14:16.163Z,11.67
2017-12-31T21:16:43.650Z,16.13
2017-12-31T21:19:11.078Z,17.90
2017-12-31T21:21:38.561Z,12.27
2017-12-31T21:24:06.843Z,13.17
2017-12-31T21:26:34.316Z,27.77
2017-12-31T21:29:01.755Z,111.93
2017-12-31T21:31:29.248Z,81.93
2017-12-31T21:33:56.710Z,54.23
2017-12-31T21:36:24.186Z,57.97
2017-12-31T21:38:51.658Z,44.13
2017-12-31T21:41:19.904Z,63.30
2017-12-31T21:43:47.339Z,62.47
2017-12-31T21:46:14.843Z,50.23
2017-12-31T21:48:42.322Z,52.27
2017-12-31T21:51:09.757Z,39.80
2017-12-31T21:53:37.997Z,61.67
2017-12-31T21:56:05.480Z,36.97
2017-12-31T21:58:32.949Z,52.40
2017-12-31T22:01:01.209Z,57.30
2017-12-31T22:03:28.676Z,24.87
2017-12-31T22:05:56.158Z,11.37
2017-12-31T22:08:23.587Z,11.03
2017-12-31T22:10:52.617Z,14.07
2017-12-31T22:13:20.898Z,13.33
2017-12-31T22:15:49.674Z,26.43
2017-12-31T22:18:17.137Z,18.03
2017-12-31T22:20:44.613Z,26.13
2017-12-31T22:23:12.098Z,24.90
2017-12-31T22:25:39.579Z,24.67
2017-12-31T22:28:06.999Z,20.63
2017-12-31T22:30:35.267Z,22.87
2017-12-31T22:33:02.691Z,16.93
2017-12-31T22:35:30.905Z,22.80
2017-12-31T22:37:58.395Z,42.03
2017-12-31T22:40:25.880Z,116.50
2017-12-31T22:42:53.370Z,104.00
2017-12-31T22:45:20.846Z,67.03
2017-12-31T22:47:48.641Z,34.90
2017-12-31T22:50:16.077Z,35.20
2017-12-31T22:52:44.273Z,33.20
2017-12-31T22:55:12.525Z,31.33
2017-12-31T22:57:39.979Z,30.03
2017-12-31T23:00:08.222Z,30.53
2017-12-31T23:02:35.709Z,23.37
2017-12-31T23:05:03.138Z,23.67
2017-12-31T23:07:30.575Z,30.00
2017-12-31T23:09:58.070Z,83.90
2017-12-31T23:12:25.501Z,193.63
2017-12-31T23:14:52.956Z,223.47
2017-12-31T23:17:20.397Z,203.70
2017-12-31T23:19:47.870Z,237.37
2017-12-31T23:22:15.317Z,261.10
2017-12-31T23:24:42.775Z,236.63
2017-12-31T23:27:10.264Z,134.63
2017-12-31T23:29:37.651Z,80.87
2017-12-31T23:32:05.158Z,52.30
2017-12-31T23:34:32.625Z,42.33
2017-12-31T23:37:00.091Z,34.50
2017-12-31T23:39:27.537Z,74.53
2017-12-31T23:41:54.983Z,40.23
2017-12-31T23:44:22.420Z,20.20
2017-12-31T23:46:50.453Z,13.93
2017-12-31T23:49:17.884Z,14.23
2017-12-31T23:51:46.146Z,11.40
2017-12-31T23:54:13.613Z,11.70
2017-12-31T23:56:41.089Z,11.20
2017-12-31T23:59:08.558Z,14.43
